クェゼリン環礁 の空港の天気 - METARとTAF

バックホルツ陸軍飛行場 ( PKWA / KWA ) - マーシャル諸島 クェゼリン環礁
飛行場実況気象(Metar)
観測時間05/28 23:00 MHT (05/28 11:00 UTC)
風向・風速東北東 9m/s 瞬間風速11m/s
視程10km以上
天気現象
全天の4割程度の雲 雲底高度 1460m
気温27.1℃
湿度83%
気圧1011hPa
METARPKWA 281100Z AUTO 07017G21KT 10SM SCT048 27/24 A2986 RMK AO2 T02710239
過去の天気等 Google飛行場航空写真 Wunderground天気予報

過去48時間のMETAR

飛行場予報(TAF)
発表時間: 5/28 17:41 MHT (5/28 05:41 UTC)
予報対象時間: 28日18時 MHT ~ 29日18時 MHT
風向・風速東北東 6m/s
視程10km以上
天気現象周辺でしゅう雨
全天の4割程度の雲 雲底高度 610m
全天の4割程度の雲 雲底高度 4570m
PKWA 280541Z 2806/2906 07012KT P6SM VCSH SCT020 SCT150